sensor_id;sensor_type;location;lat;lon;timestamp;P1;durP1;ratioP1;P2;durP2;ratioP2
66402;SDS011;53212;52.112;5.144;2023-05-19T00:00:41;7.90;;;3.80;;
66402;SDS011;53212;52.112;5.144;2023-05-19T00:03:09;5.50;;;3.60;;
66402;SDS011;53212;52.112;5.144;2023-05-19T00:05:38;5.50;;;3.60;;
66402;SDS011;53212;52.112;5.144;2023-05-19T00:08:09;7.60;;;3.50;;
66402;SDS011;53212;52.112;5.144;2023-05-19T00:10:36;7.90;;;3.30;;
66402;SDS011;53212;52.112;5.144;2023-05-19T00:13:02;5.90;;;3.40;;
66402;SDS011;53212;52.112;5.144;2023-05-19T00:15:29;8.30;;;4.00;;
66402;SDS011;53212;52.112;5.144;2023-05-19T00:17:55;6.40;;;3.30;;
66402;SDS011;53212;52.112;5.144;2023-05-19T00:20:21;7.00;;;4.00;;
66402;SDS011;53212;52.112;5.144;2023-05-19T00:22:47;9.10;;;3.90;;
66402;SDS011;53212;52.112;5.144;2023-05-19T00:25:12;7.80;;;4.10;;
66402;SDS011;53212;52.112;5.144;2023-05-19T00:27:38;6.30;;;3.60;;
66402;SDS011;53212;52.112;5.144;2023-05-19T00:30:04;8.00;;;3.80;;
66402;SDS011;53212;52.112;5.144;2023-05-19T00:32:30;7.80;;;3.70;;
66402;SDS011;53212;52.112;5.144;2023-05-19T00:34:55;8.80;;;3.50;;
66402;SDS011;53212;52.112;5.144;2023-05-19T00:37:20;7.10;;;3.40;;
66402;SDS011;53212;52.112;5.144;2023-05-19T00:39:47;9.30;;;4.10;;
66402;SDS011;53212;52.112;5.144;2023-05-19T00:42:12;6.80;;;3.70;;
66402;SDS011;53212;52.112;5.144;2023-05-19T00:44:39;9.00;;;4.10;;
66402;SDS011;53212;52.112;5.144;2023-05-19T00:47:06;8.10;;;3.80;;
66402;SDS011;53212;52.112;5.144;2023-05-19T00:49:32;10.60;;;3.80;;
66402;SDS011;53212;52.112;5.144;2023-05-19T00:51:59;7.70;;;3.60;;
66402;SDS011;53212;52.112;5.144;2023-05-19T00:54:25;6.20;;;3.30;;
66402;SDS011;53212;52.112;5.144;2023-05-19T00:56:52;7.30;;;3.30;;
66402;SDS011;53212;52.112;5.144;2023-05-19T00:59:19;8.80;;;3.70;;
66402;SDS011;53212;52.112;5.144;2023-05-19T01:01:45;4.20;;;3.30;;
66402;SDS011;53212;52.112;5.144;2023-05-19T01:04:15;7.30;;;3.70;;
66402;SDS011;53212;52.112;5.144;2023-05-19T01:06:46;7.10;;;3.40;;
66402;SDS011;53212;52.112;5.144;2023-05-19T01:09:14;6.30;;;3.10;;
66402;SDS011;53212;52.112;5.144;2023-05-19T01:11:40;5.70;;;3.40;;
66402;SDS011;53212;52.112;5.144;2023-05-19T01:14:06;6.90;;;3.40;;
66402;SDS011;53212;52.112;5.144;2023-05-19T01:26:34;7.70;;;3.70;;
66402;SDS011;53212;52.112;5.144;2023-05-19T01:31:43;7.40;;;3.50;;
66402;SDS011;53212;52.112;5.144;2023-05-19T01:34:12;7.00;;;3.70;;
66402;SDS011;53212;52.112;5.144;2023-05-19T01:36:41;7.80;;;3.60;;
66402;SDS011;53212;52.112;5.144;2023-05-19T01:39:09;7.50;;;3.70;;
66402;SDS011;53212;52.112;5.144;2023-05-19T01:41:36;5.50;;;3.30;;
66402;SDS011;53212;52.112;5.144;2023-05-19T01:44:04;7.60;;;3.60;;
66402;SDS011;53212;52.112;5.144;2023-05-19T01:46:30;10.90;;;3.60;;
66402;SDS011;53212;52.112;5.144;2023-05-19T01:48:55;7.80;;;3.80;;
66402;SDS011;53212;52.112;5.144;2023-05-19T01:51:22;10.20;;;4.10;;
66402;SDS011;53212;52.112;5.144;2023-05-19T01:53:47;6.70;;;4.00;;
66402;SDS011;53212;52.112;5.144;2023-05-19T01:56:15;8.30;;;4.20;;
66402;SDS011;53212;52.112;5.144;2023-05-19T01:58:54;6.10;;;3.90;;
66402;SDS011;53212;52.112;5.144;2023-05-19T02:01:38;5.30;;;3.20;;
66402;SDS011;53212;52.112;5.144;2023-05-19T02:04:18;6.80;;;3.90;;
66402;SDS011;53212;52.112;5.144;2023-05-19T02:09:37;10.60;;;4.30;;
66402;SDS011;53212;52.112;5.144;2023-05-19T02:14:58;10.60;;;4.30;;
66402;SDS011;53212;52.112;5.144;2023-05-19T02:17:44;8.80;;;4.20;;
66402;SDS011;53212;52.112;5.144;2023-05-19T02:20:12;5.40;;;3.70;;
66402;SDS011;53212;52.112;5.144;2023-05-19T02:22:39;7.20;;;3.90;;
66402;SDS011;53212;52.112;5.144;2023-05-19T02:25:05;9.70;;;4.10;;
66402;SDS011;53212;52.112;5.144;2023-05-19T02:27:33;7.00;;;4.00;;
66402;SDS011;53212;52.112;5.144;2023-05-19T02:29:59;6.20;;;4.00;;
66402;SDS011;53212;52.112;5.144;2023-05-19T02:32:24;9.40;;;4.20;;
66402;SDS011;53212;52.112;5.144;2023-05-19T02:34:50;6.60;;;3.80;;
66402;SDS011;53212;52.112;5.144;2023-05-19T02:37:17;9.70;;;4.40;;
66402;SDS011;53212;52.112;5.144;2023-05-19T02:39:43;9.40;;;4.00;;
66402;SDS011;53212;52.112;5.144;2023-05-19T02:42:09;6.10;;;3.90;;
66402;SDS011;53212;52.112;5.144;2023-05-19T02:44:35;8.00;;;4.40;;
66402;SDS011;53212;52.112;5.144;2023-05-19T02:47:00;8.10;;;4.70;;
66402;SDS011;53212;52.112;5.144;2023-05-19T02:49:26;8.60;;;4.50;;
66402;SDS011;53212;52.112;5.144;2023-05-19T02:51:54;9.90;;;4.60;;
66402;SDS011;53212;52.112;5.144;2023-05-19T02:54:20;8.60;;;4.70;;
66402;SDS011;53212;52.112;5.144;2023-05-19T02:56:45;8.70;;;4.40;;
66402;SDS011;53212;52.112;5.144;2023-05-19T02:59:11;8.20;;;4.20;;
66402;SDS011;53212;52.112;5.144;2023-05-19T03:01:36;6.30;;;4.20;;
66402;SDS011;53212;52.112;5.144;2023-05-19T03:04:02;7.80;;;4.70;;
66402;SDS011;53212;52.112;5.144;2023-05-19T03:06:28;10.30;;;4.60;;
66402;SDS011;53212;52.112;5.144;2023-05-19T03:08:53;5.20;;;3.80;;
66402;SDS011;53212;52.112;5.144;2023-05-19T03:11:18;8.70;;;4.90;;
66402;SDS011;53212;52.112;5.144;2023-05-19T03:13:44;8.60;;;5.00;;
66402;SDS011;53212;52.112;5.144;2023-05-19T03:16:10;13.10;;;4.70;;
66402;SDS011;53212;52.112;5.144;2023-05-19T03:18:35;8.80;;;5.40;;
66402;SDS011;53212;52.112;5.144;2023-05-19T03:21:02;7.00;;;4.40;;
66402;SDS011;53212;52.112;5.144;2023-05-19T03:23:27;11.10;;;4.30;;
66402;SDS011;53212;52.112;5.144;2023-05-19T03:25:52;16.00;;;5.20;;
66402;SDS011;53212;52.112;5.144;2023-05-19T03:28:19;10.70;;;5.60;;
66402;SDS011;53212;52.112;5.144;2023-05-19T03:30:45;9.60;;;5.10;;
66402;SDS011;53212;52.112;5.144;2023-05-19T03:33:14;8.50;;;4.60;;
66402;SDS011;53212;52.112;5.144;2023-05-19T03:35:39;8.40;;;4.70;;
66402;SDS011;53212;52.112;5.144;2023-05-19T03:38:05;9.10;;;5.10;;
66402;SDS011;53212;52.112;5.144;2023-05-19T03:40:30;9.30;;;4.70;;
66402;SDS011;53212;52.112;5.144;2023-05-19T03:42:55;7.40;;;4.90;;
66402;SDS011;53212;52.112;5.144;2023-05-19T03:45:21;9.10;;;5.20;;
66402;SDS011;53212;52.112;5.144;2023-05-19T03:47:46;11.20;;;5.20;;
66402;SDS011;53212;52.112;5.144;2023-05-19T03:50:12;8.40;;;5.10;;
66402;SDS011;53212;52.112;5.144;2023-05-19T03:52:38;7.30;;;5.00;;
66402;SDS011;53212;52.112;5.144;2023-05-19T03:55:04;7.10;;;4.90;;
66402;SDS011;53212;52.112;5.144;2023-05-19T03:57:31;7.90;;;4.90;;
66402;SDS011;53212;52.112;5.144;2023-05-19T03:59:57;8.50;;;5.40;;
66402;SDS011;53212;52.112;5.144;2023-05-19T04:02:23;10.40;;;4.80;;
66402;SDS011;53212;52.112;5.144;2023-05-19T04:04:48;9.60;;;5.30;;
66402;SDS011;53212;52.112;5.144;2023-05-19T04:07:15;8.00;;;5.10;;
66402;SDS011;53212;52.112;5.144;2023-05-19T04:09:40;9.70;;;4.90;;
66402;SDS011;53212;52.112;5.144;2023-05-19T04:12:06;9.80;;;5.30;;
66402;SDS011;53212;52.112;5.144;2023-05-19T04:14:32;6.40;;;4.60;;
66402;SDS011;53212;52.112;5.144;2023-05-19T04:16:58;10.90;;;5.20;;
66402;SDS011;53212;52.112;5.144;2023-05-19T04:19:23;7.00;;;4.80;;
66402;SDS011;53212;52.112;5.144;2023-05-19T04:21:49;5.90;;;4.70;;
66402;SDS011;53212;52.112;5.144;2023-05-19T04:24:16;8.20;;;5.10;;
66402;SDS011;53212;52.112;5.144;2023-05-19T04:26:41;10.60;;;5.20;;
66402;SDS011;53212;52.112;5.144;2023-05-19T04:29:11;11.80;;;5.60;;
66402;SDS011;53212;52.112;5.144;2023-05-19T04:31:38;7.80;;;5.20;;
66402;SDS011;53212;52.112;5.144;2023-05-19T04:34:05;8.50;;;5.10;;
66402;SDS011;53212;52.112;5.144;2023-05-19T04:36:32;9.30;;;5.40;;
66402;SDS011;53212;52.112;5.144;2023-05-19T04:38:58;9.30;;;5.60;;
66402;SDS011;53212;52.112;5.144;2023-05-19T04:41:31;6.30;;;5.30;;
66402;SDS011;53212;52.112;5.144;2023-05-19T04:43:58;9.00;;;5.40;;
66402;SDS011;53212;52.112;5.144;2023-05-19T04:46:23;9.20;;;5.70;;
66402;SDS011;53212;52.112;5.144;2023-05-19T04:48:50;9.40;;;5.50;;
66402;SDS011;53212;52.112;5.144;2023-05-19T04:51:17;9.80;;;5.60;;
66402;SDS011;53212;52.112;5.144;2023-05-19T04:53:45;8.50;;;5.10;;
66402;SDS011;53212;52.112;5.144;2023-05-19T04:56:11;8.40;;;5.50;;
66402;SDS011;53212;52.112;5.144;2023-05-19T04:58:40;11.60;;;6.20;;
66402;SDS011;53212;52.112;5.144;2023-05-19T05:01:06;9.90;;;5.50;;
66402;SDS011;53212;52.112;5.144;2023-05-19T05:03:33;7.10;;;5.50;;
66402;SDS011;53212;52.112;5.144;2023-05-19T05:05:59;9.60;;;5.40;;
66402;SDS011;53212;52.112;5.144;2023-05-19T05:08:24;9.90;;;5.00;;
66402;SDS011;53212;52.112;5.144;2023-05-19T05:10:50;10.40;;;5.40;;
66402;SDS011;53212;52.112;5.144;2023-05-19T05:13:19;8.20;;;5.60;;
66402;SDS011;53212;52.112;5.144;2023-05-19T05:15:47;7.30;;;4.90;;
66402;SDS011;53212;52.112;5.144;2023-05-19T05:18:13;9.10;;;5.10;;
66402;SDS011;53212;52.112;5.144;2023-05-19T05:20:41;9.30;;;4.70;;
66402;SDS011;53212;52.112;5.144;2023-05-19T05:23:08;6.70;;;4.60;;
66402;SDS011;53212;52.112;5.144;2023-05-19T05:25:35;9.10;;;4.70;;
66402;SDS011;53212;52.112;5.144;2023-05-19T05:28:02;7.10;;;4.50;;
66402;SDS011;53212;52.112;5.144;2023-05-19T05:30:29;7.00;;;4.40;;
66402;SDS011;53212;52.112;5.144;2023-05-19T05:32:55;6.90;;;4.40;;
66402;SDS011;53212;52.112;5.144;2023-05-19T05:35:21;7.30;;;4.40;;
66402;SDS011;53212;52.112;5.144;2023-05-19T05:37:48;7.70;;;4.00;;
66402;SDS011;53212;52.112;5.144;2023-05-19T05:40:14;5.80;;;4.10;;
66402;SDS011;53212;52.112;5.144;2023-05-19T05:42:40;5.60;;;4.20;;
66402;SDS011;53212;52.112;5.144;2023-05-19T05:45:06;6.30;;;4.00;;
66402;SDS011;53212;52.112;5.144;2023-05-19T05:47:32;5.80;;;4.30;;
66402;SDS011;53212;52.112;5.144;2023-05-19T05:49:58;7.90;;;4.60;;
66402;SDS011;53212;52.112;5.144;2023-05-19T05:52:26;5.30;;;4.20;;
66402;SDS011;53212;52.112;5.144;2023-05-19T05:54:54;5.60;;;3.70;;
66402;SDS011;53212;52.112;5.144;2023-05-19T05:57:20;5.90;;;3.60;;
66402;SDS011;53212;52.112;5.144;2023-05-19T05:59:46;6.70;;;3.70;;
66402;SDS011;53212;52.112;5.144;2023-05-19T06:02:11;5.20;;;3.90;;
66402;SDS011;53212;52.112;5.144;2023-05-19T06:04:37;5.00;;;3.40;;
66402;SDS011;53212;52.112;5.144;2023-05-19T06:07:02;7.00;;;4.30;;
66402;SDS011;53212;52.112;5.144;2023-05-19T06:09:28;7.10;;;4.20;;
66402;SDS011;53212;52.112;5.144;2023-05-19T06:11:54;7.70;;;3.90;;
66402;SDS011;53212;52.112;5.144;2023-05-19T06:14:20;8.80;;;4.70;;
66402;SDS011;53212;52.112;5.144;2023-05-19T06:16:46;6.80;;;3.40;;
66402;SDS011;53212;52.112;5.144;2023-05-19T06:19:12;5.50;;;3.70;;
66402;SDS011;53212;52.112;5.144;2023-05-19T06:21:45;6.20;;;3.50;;
66402;SDS011;53212;52.112;5.144;2023-05-19T06:24:10;7.90;;;3.90;;
66402;SDS011;53212;52.112;5.144;2023-05-19T06:26:36;7.00;;;3.50;;
66402;SDS011;53212;52.112;5.144;2023-05-19T06:29:01;4.40;;;3.20;;
66402;SDS011;53212;52.112;5.144;2023-05-19T06:31:28;6.80;;;3.80;;
66402;SDS011;53212;52.112;5.144;2023-05-19T06:33:53;7.00;;;3.90;;
66402;SDS011;53212;52.112;5.144;2023-05-19T06:36:19;6.70;;;3.30;;
66402;SDS011;53212;52.112;5.144;2023-05-19T06:38:45;8.00;;;3.80;;
66402;SDS011;53212;52.112;5.144;2023-05-19T06:41:11;4.90;;;3.10;;
66402;SDS011;53212;52.112;5.144;2023-05-19T06:43:36;6.50;;;3.60;;
66402;SDS011;53212;52.112;5.144;2023-05-19T06:46:02;4.60;;;3.10;;
66402;SDS011;53212;52.112;5.144;2023-05-19T06:48:28;5.30;;;3.10;;
66402;SDS011;53212;52.112;5.144;2023-05-19T06:50:53;5.70;;;3.00;;
66402;SDS011;53212;52.112;5.144;2023-05-19T06:53:20;6.40;;;3.30;;
66402;SDS011;53212;52.112;5.144;2023-05-19T06:55:45;7.00;;;3.30;;
66402;SDS011;53212;52.112;5.144;2023-05-19T06:58:14;6.70;;;3.70;;
66402;SDS011;53212;52.112;5.144;2023-05-19T07:00:40;7.20;;;3.30;;
66402;SDS011;53212;52.112;5.144;2023-05-19T07:03:06;6.20;;;3.40;;
66402;SDS011;53212;52.112;5.144;2023-05-19T07:05:31;5.30;;;3.00;;
66402;SDS011;53212;52.112;5.144;2023-05-19T07:07:56;6.30;;;3.40;;
66402;SDS011;53212;52.112;5.144;2023-05-19T07:10:22;6.10;;;3.20;;
66402;SDS011;53212;52.112;5.144;2023-05-19T07:12:47;6.00;;;3.50;;
66402;SDS011;53212;52.112;5.144;2023-05-19T07:15:13;9.00;;;3.60;;
66402;SDS011;53212;52.112;5.144;2023-05-19T07:17:38;8.40;;;3.60;;
66402;SDS011;53212;52.112;5.144;2023-05-19T07:20:04;8.40;;;3.70;;
66402;SDS011;53212;52.112;5.144;2023-05-19T07:22:36;6.90;;;3.80;;
66402;SDS011;53212;52.112;5.144;2023-05-19T07:25:04;7.00;;;3.90;;
66402;SDS011;53212;52.112;5.144;2023-05-19T07:27:31;5.30;;;3.60;;
66402;SDS011;53212;52.112;5.144;2023-05-19T07:29:57;5.80;;;3.30;;
66402;SDS011;53212;52.112;5.144;2023-05-19T07:32:22;7.20;;;3.80;;
66402;SDS011;53212;52.112;5.144;2023-05-19T07:34:47;6.10;;;3.90;;
66402;SDS011;53212;52.112;5.144;2023-05-19T07:37:13;9.30;;;3.60;;
66402;SDS011;53212;52.112;5.144;2023-05-19T07:39:38;5.70;;;3.50;;
66402;SDS011;53212;52.112;5.144;2023-05-19T07:42:04;6.80;;;3.40;;
66402;SDS011;53212;52.112;5.144;2023-05-19T07:44:29;7.20;;;4.00;;
66402;SDS011;53212;52.112;5.144;2023-05-19T07:46:55;8.40;;;3.40;;
66402;SDS011;53212;52.112;5.144;2023-05-19T07:49:21;6.00;;;3.10;;
66402;SDS011;53212;52.112;5.144;2023-05-19T07:51:47;7.10;;;3.80;;
66402;SDS011;53212;52.112;5.144;2023-05-19T07:54:12;9.40;;;3.80;;
66402;SDS011;53212;52.112;5.144;2023-05-19T07:56:38;7.50;;;3.20;;
66402;SDS011;53212;52.112;5.144;2023-05-19T07:59:03;6.20;;;3.30;;
66402;SDS011;53212;52.112;5.144;2023-05-19T08:01:29;7.40;;;3.40;;
66402;SDS011;53212;52.112;5.144;2023-05-19T08:03:56;5.80;;;3.00;;
66402;SDS011;53212;52.112;5.144;2023-05-19T08:06:21;6.90;;;3.20;;
66402;SDS011;53212;52.112;5.144;2023-05-19T08:08:47;6.20;;;3.10;;
66402;SDS011;53212;52.112;5.144;2023-05-19T08:11:12;4.60;;;3.10;;
66402;SDS011;53212;52.112;5.144;2023-05-19T08:13:38;5.80;;;3.20;;
66402;SDS011;53212;52.112;5.144;2023-05-19T08:16:04;6.70;;;3.10;;
66402;SDS011;53212;52.112;5.144;2023-05-19T08:18:29;7.80;;;3.60;;
66402;SDS011;53212;52.112;5.144;2023-05-19T08:20:55;6.90;;;3.10;;
66402;SDS011;53212;52.112;5.144;2023-05-19T08:23:20;5.60;;;3.00;;
66402;SDS011;53212;52.112;5.144;2023-05-19T08:25:46;6.60;;;3.30;;
66402;SDS011;53212;52.112;5.144;2023-05-19T08:28:12;7.20;;;3.20;;
66402;SDS011;53212;52.112;5.144;2023-05-19T08:30:38;6.60;;;3.00;;
66402;SDS011;53212;52.112;5.144;2023-05-19T08:33:03;6.40;;;3.00;;
66402;SDS011;53212;52.112;5.144;2023-05-19T08:35:29;5.60;;;3.40;;
66402;SDS011;53212;52.112;5.144;2023-05-19T08:37:54;7.40;;;2.90;;
66402;SDS011;53212;52.112;5.144;2023-05-19T08:40:20;6.50;;;3.10;;
66402;SDS011;53212;52.112;5.144;2023-05-19T08:42:47;5.60;;;3.10;;
66402;SDS011;53212;52.112;5.144;2023-05-19T08:45:13;7.50;;;3.00;;
66402;SDS011;53212;52.112;5.144;2023-05-19T08:47:44;4.80;;;2.60;;
66402;SDS011;53212;52.112;5.144;2023-05-19T08:50:10;6.20;;;3.10;;
66402;SDS011;53212;52.112;5.144;2023-05-19T08:55:35;6.70;;;2.70;;
66402;SDS011;53212;52.112;5.144;2023-05-19T08:58:07;6.40;;;2.50;;
66402;SDS011;53212;52.112;5.144;2023-05-19T09:00:35;7.00;;;2.60;;
66402;SDS011;53212;52.112;5.144;2023-05-19T09:03:01;4.80;;;2.30;;
66402;SDS011;53212;52.112;5.144;2023-05-19T09:05:28;4.60;;;2.60;;
66402;SDS011;53212;52.112;5.144;2023-05-19T09:07:54;4.10;;;2.00;;
66402;SDS011;53212;52.112;5.144;2023-05-19T09:10:19;6.50;;;2.20;;
66402;SDS011;53212;52.112;5.144;2023-05-19T09:12:45;8.60;;;2.50;;
66402;SDS011;53212;52.112;5.144;2023-05-19T09:15:12;4.30;;;1.90;;
66402;SDS011;53212;52.112;5.144;2023-05-19T09:17:41;3.90;;;1.90;;
66402;SDS011;53212;52.112;5.144;2023-05-19T09:20:08;5.80;;;1.80;;
66402;SDS011;53212;52.112;5.144;2023-05-19T09:22:43;9.90;;;1.90;;
66402;SDS011;53212;52.112;5.144;2023-05-19T09:25:22;7.30;;;2.20;;
66402;SDS011;53212;52.112;5.144;2023-05-19T09:27:48;5.50;;;2.10;;
66402;SDS011;53212;52.112;5.144;2023-05-19T09:30:17;4.10;;;2.00;;
66402;SDS011;53212;52.112;5.144;2023-05-19T09:32:44;4.80;;;1.90;;
66402;SDS011;53212;52.112;5.144;2023-05-19T09:35:11;4.80;;;2.00;;
66402;SDS011;53212;52.112;5.144;2023-05-19T09:37:40;5.20;;;2.10;;
66402;SDS011;53212;52.112;5.144;2023-05-19T09:40:12;6.50;;;2.00;;
66402;SDS011;53212;52.112;5.144;2023-05-19T09:42:39;4.90;;;2.00;;
66402;SDS011;53212;52.112;5.144;2023-05-19T09:45:06;4.20;;;1.90;;
66402;SDS011;53212;52.112;5.144;2023-05-19T09:47:37;6.50;;;2.40;;
66402;SDS011;53212;52.112;5.144;2023-05-19T09:50:07;6.30;;;2.20;;
66402;SDS011;53212;52.112;5.144;2023-05-19T09:55:07;10.20;;;2.00;;
66402;SDS011;53212;52.112;5.144;2023-05-19T09:57:35;4.70;;;1.90;;
66402;SDS011;53212;52.112;5.144;2023-05-19T10:00:06;5.50;;;2.00;;
66402;SDS011;53212;52.112;5.144;2023-05-19T10:02:39;4.20;;;2.10;;
66402;SDS011;53212;52.112;5.144;2023-05-19T10:05:07;6.40;;;2.30;;
66402;SDS011;53212;52.112;5.144;2023-05-19T10:07:53;4.20;;;1.90;;
66402;SDS011;53212;52.112;5.144;2023-05-19T10:10:20;8.10;;;2.10;;
66402;SDS011;53212;52.112;5.144;2023-05-19T10:12:49;7.10;;;1.90;;
66402;SDS011;53212;52.112;5.144;2023-05-19T10:15:17;5.80;;;1.90;;
66402;SDS011;53212;52.112;5.144;2023-05-19T10:17:44;6.70;;;2.20;;
66402;SDS011;53212;52.112;5.144;2023-05-19T10:20:14;6.90;;;2.10;;
66402;SDS011;53212;52.112;5.144;2023-05-19T10:22:42;5.00;;;2.20;;
66402;SDS011;53212;52.112;5.144;2023-05-19T10:25:09;3.50;;;1.70;;
66402;SDS011;53212;52.112;5.144;2023-05-19T10:28:07;5.30;;;1.80;;
66402;SDS011;53212;52.112;5.144;2023-05-19T10:30:38;3.90;;;2.00;;
66402;SDS011;53212;52.112;5.144;2023-05-19T10:33:09;4.80;;;2.00;;
66402;SDS011;53212;52.112;5.144;2023-05-19T10:36:00;4.30;;;2.20;;
66402;SDS011;53212;52.112;5.144;2023-05-19T10:39:03;5.50;;;2.10;;
66402;SDS011;53212;52.112;5.144;2023-05-19T10:41:52;3.80;;;1.80;;
66402;SDS011;53212;52.112;5.144;2023-05-19T10:44:52;4.80;;;2.10;;
66402;SDS011;53212;52.112;5.144;2023-05-19T10:47:25;8.90;;;2.30;;
66402;SDS011;53212;52.112;5.144;2023-05-19T10:49:52;3.90;;;1.90;;
66402;SDS011;53212;52.112;5.144;2023-05-19T10:52:19;5.20;;;2.10;;
66402;SDS011;53212;52.112;5.144;2023-05-19T10:54:50;5.50;;;2.20;;
66402;SDS011;53212;52.112;5.144;2023-05-19T10:57:19;3.90;;;2.20;;
66402;SDS011;53212;52.112;5.144;2023-05-19T10:59:55;5.70;;;2.50;;
66402;SDS011;53212;52.112;5.144;2023-05-19T11:02:41;5.70;;;2.40;;
66402;SDS011;53212;52.112;5.144;2023-05-19T11:05:11;5.00;;;2.40;;
66402;SDS011;53212;52.112;5.144;2023-05-19T11:07:56;5.80;;;2.30;;
66402;SDS011;53212;52.112;5.144;2023-05-19T11:10:32;6.30;;;2.50;;
66402;SDS011;53212;52.112;5.144;2023-05-19T11:12:58;7.90;;;2.60;;
66402;SDS011;53212;52.112;5.144;2023-05-19T11:15:25;9.20;;;2.50;;
66402;SDS011;53212;52.112;5.144;2023-05-19T11:17:51;4.20;;;2.10;;
66402;SDS011;53212;52.112;5.144;2023-05-19T11:23:07;3.90;;;2.20;;
66402;SDS011;53212;52.112;5.144;2023-05-19T11:25:49;6.60;;;2.00;;
66402;SDS011;53212;52.112;5.144;2023-05-19T11:28:19;5.20;;;2.10;;
66402;SDS011;53212;52.112;5.144;2023-05-19T11:30:49;4.90;;;2.00;;
66402;SDS011;53212;52.112;5.144;2023-05-19T11:33:20;5.10;;;1.90;;
66402;SDS011;53212;52.112;5.144;2023-05-19T11:35:52;5.60;;;2.10;;
66402;SDS011;53212;52.112;5.144;2023-05-19T11:38:19;5.00;;;2.10;;
66402;SDS011;53212;52.112;5.144;2023-05-19T11:40:47;4.60;;;2.20;;
66402;SDS011;53212;52.112;5.144;2023-05-19T11:43:13;4.90;;;2.20;;
66402;SDS011;53212;52.112;5.144;2023-05-19T11:45:40;10.70;;;2.60;;
66402;SDS011;53212;52.112;5.144;2023-05-19T11:48:10;4.90;;;2.20;;
66402;SDS011;53212;52.112;5.144;2023-05-19T11:50:36;7.80;;;2.70;;
66402;SDS011;53212;52.112;5.144;2023-05-19T11:53:04;4.80;;;2.20;;
66402;SDS011;53212;52.112;5.144;2023-05-19T11:55:30;6.70;;;1.70;;
66402;SDS011;53212;52.112;5.144;2023-05-19T11:58:00;8.00;;;2.70;;
66402;SDS011;53212;52.112;5.144;2023-05-19T12:00:35;4.60;;;2.10;;
66402;SDS011;53212;52.112;5.144;2023-05-19T12:03:02;7.70;;;2.10;;
66402;SDS011;53212;52.112;5.144;2023-05-19T12:05:27;4.60;;;2.20;;
66402;SDS011;53212;52.112;5.144;2023-05-19T12:07:53;5.70;;;2.30;;
66402;SDS011;53212;52.112;5.144;2023-05-19T12:10:23;4.30;;;2.20;;
66402;SDS011;53212;52.112;5.144;2023-05-19T12:12:51;4.90;;;2.10;;
66402;SDS011;53212;52.112;5.144;2023-05-19T12:15:21;4.80;;;2.00;;
66402;SDS011;53212;52.112;5.144;2023-05-19T12:17:57;5.20;;;2.00;;
66402;SDS011;53212;52.112;5.144;2023-05-19T12:20:25;5.80;;;2.10;;
66402;SDS011;53212;52.112;5.144;2023-05-19T12:22:53;4.90;;;1.70;;
66402;SDS011;53212;52.112;5.144;2023-05-19T12:25:19;7.00;;;2.00;;
66402;SDS011;53212;52.112;5.144;2023-05-19T12:27:45;5.70;;;2.10;;
66402;SDS011;53212;52.112;5.144;2023-05-19T12:30:12;3.60;;;1.90;;
66402;SDS011;53212;52.112;5.144;2023-05-19T12:32:38;4.20;;;2.00;;
66402;SDS011;53212;52.112;5.144;2023-05-19T12:35:04;3.40;;;1.80;;
66402;SDS011;53212;52.112;5.144;2023-05-19T12:37:33;3.90;;;2.00;;
66402;SDS011;53212;52.112;5.144;2023-05-19T12:40:01;6.70;;;2.70;;
66402;SDS011;53212;52.112;5.144;2023-05-19T12:42:30;6.70;;;2.10;;
66402;SDS011;53212;52.112;5.144;2023-05-19T12:44:59;5.70;;;2.40;;
66402;SDS011;53212;52.112;5.144;2023-05-19T12:47:34;6.30;;;2.30;;
66402;SDS011;53212;52.112;5.144;2023-05-19T12:50:07;7.00;;;2.20;;
66402;SDS011;53212;52.112;5.144;2023-05-19T12:52:47;5.00;;;2.40;;
66402;SDS011;53212;52.112;5.144;2023-05-19T12:55:15;6.70;;;2.20;;
66402;SDS011;53212;52.112;5.144;2023-05-19T12:57:42;5.50;;;2.10;;
66402;SDS011;53212;52.112;5.144;2023-05-19T13:02:58;3.90;;;1.70;;
66402;SDS011;53212;52.112;5.144;2023-05-19T13:05:36;5.10;;;2.10;;
66402;SDS011;53212;52.112;5.144;2023-05-19T13:08:10;6.10;;;2.10;;
66402;SDS011;53212;52.112;5.144;2023-05-19T13:10:41;5.50;;;2.30;;
66402;SDS011;53212;52.112;5.144;2023-05-19T13:13:08;4.50;;;1.90;;
66402;SDS011;53212;52.112;5.144;2023-05-19T13:15:37;3.10;;;1.90;;
66402;SDS011;53212;52.112;5.144;2023-05-19T13:18:07;4.10;;;2.10;;
66402;SDS011;53212;52.112;5.144;2023-05-19T13:20:35;5.70;;;2.60;;
66402;SDS011;53212;52.112;5.144;2023-05-19T13:23:02;6.30;;;2.50;;
66402;SDS011;53212;52.112;5.144;2023-05-19T13:25:29;6.60;;;3.00;;
66402;SDS011;53212;52.112;5.144;2023-05-19T13:27:54;4.10;;;2.30;;
66402;SDS011;53212;52.112;5.144;2023-05-19T13:30:20;5.60;;;2.20;;
66402;SDS011;53212;52.112;5.144;2023-05-19T13:32:46;4.90;;;2.30;;
66402;SDS011;53212;52.112;5.144;2023-05-19T13:35:13;6.30;;;2.30;;
66402;SDS011;53212;52.112;5.144;2023-05-19T13:37:40;5.00;;;2.50;;
66402;SDS011;53212;52.112;5.144;2023-05-19T13:40:07;4.30;;;2.00;;
66402;SDS011;53212;52.112;5.144;2023-05-19T13:42:33;8.50;;;2.40;;
66402;SDS011;53212;52.112;5.144;2023-05-19T13:44:59;6.00;;;2.20;;
66402;SDS011;53212;52.112;5.144;2023-05-19T13:47:26;6.70;;;2.30;;
66402;SDS011;53212;52.112;5.144;2023-05-19T13:49:52;5.10;;;2.20;;
66402;SDS011;53212;52.112;5.144;2023-05-19T13:52:19;4.30;;;2.20;;
66402;SDS011;53212;52.112;5.144;2023-05-19T13:54:45;4.80;;;2.30;;
66402;SDS011;53212;52.112;5.144;2023-05-19T13:57:12;6.10;;;2.70;;
66402;SDS011;53212;52.112;5.144;2023-05-19T13:59:37;6.40;;;2.30;;
66402;SDS011;53212;52.112;5.144;2023-05-19T14:02:03;4.20;;;2.60;;
66402;SDS011;53212;52.112;5.144;2023-05-19T14:04:30;4.90;;;2.40;;
66402;SDS011;53212;52.112;5.144;2023-05-19T14:06:56;4.20;;;2.40;;
66402;SDS011;53212;52.112;5.144;2023-05-19T14:09:22;6.80;;;2.30;;
66402;SDS011;53212;52.112;5.144;2023-05-19T14:11:48;6.70;;;2.40;;
66402;SDS011;53212;52.112;5.144;2023-05-19T14:14:14;4.90;;;2.20;;
66402;SDS011;53212;52.112;5.144;2023-05-19T14:16:40;5.20;;;2.30;;
66402;SDS011;53212;52.112;5.144;2023-05-19T14:19:06;7.10;;;2.30;;
66402;SDS011;53212;52.112;5.144;2023-05-19T14:21:32;3.40;;;1.80;;
66402;SDS011;53212;52.112;5.144;2023-05-19T14:23:57;4.60;;;2.00;;
66402;SDS011;53212;52.112;5.144;2023-05-19T14:26:23;5.20;;;2.40;;
66402;SDS011;53212;52.112;5.144;2023-05-19T14:28:49;5.70;;;2.20;;
66402;SDS011;53212;52.112;5.144;2023-05-19T14:31:15;3.60;;;2.20;;
66402;SDS011;53212;52.112;5.144;2023-05-19T14:33:40;3.60;;;2.20;;
66402;SDS011;53212;52.112;5.144;2023-05-19T14:36:07;5.30;;;2.30;;
66402;SDS011;53212;52.112;5.144;2023-05-19T14:38:33;6.00;;;2.60;;
66402;SDS011;53212;52.112;5.144;2023-05-19T14:40:59;3.70;;;2.00;;
66402;SDS011;53212;52.112;5.144;2023-05-19T14:43:24;4.10;;;2.10;;
66402;SDS011;53212;52.112;5.144;2023-05-19T14:45:50;5.00;;;2.00;;
66402;SDS011;53212;52.112;5.144;2023-05-19T14:48:16;4.40;;;2.00;;
66402;SDS011;53212;52.112;5.144;2023-05-19T14:50:42;3.30;;;2.00;;
66402;SDS011;53212;52.112;5.144;2023-05-19T14:53:08;4.00;;;2.20;;
66402;SDS011;53212;52.112;5.144;2023-05-19T14:55:33;4.60;;;1.90;;
66402;SDS011;53212;52.112;5.144;2023-05-19T14:57:58;5.40;;;2.00;;
66402;SDS011;53212;52.112;5.144;2023-05-19T15:00:24;6.20;;;2.40;;
66402;SDS011;53212;52.112;5.144;2023-05-19T15:02:53;6.40;;;2.60;;
66402;SDS011;53212;52.112;5.144;2023-05-19T15:05:19;5.30;;;2.00;;
66402;SDS011;53212;52.112;5.144;2023-05-19T15:07:44;4.90;;;1.90;;
66402;SDS011;53212;52.112;5.144;2023-05-19T15:10:10;4.40;;;1.90;;
66402;SDS011;53212;52.112;5.144;2023-05-19T15:12:36;6.00;;;2.30;;
66402;SDS011;53212;52.112;5.144;2023-05-19T15:15:01;5.80;;;2.20;;
66402;SDS011;53212;52.112;5.144;2023-05-19T15:17:27;6.30;;;2.20;;
66402;SDS011;53212;52.112;5.144;2023-05-19T15:19:53;3.30;;;2.00;;